sensor_id;sensor_type;location;lat;lon;timestamp;pressure;altitude;pressure_sealevel;temperature;humidity
32761;BME280;19126;47.472;7.850;2023-12-07T00:00:44;96900.22;;;0.42;24.42
32761;BME280;19126;47.472;7.850;2023-12-07T00:03:12;96900.22;;;0.42;24.03
32761;BME280;19126;47.472;7.850;2023-12-07T00:05:42;96894.22;;;0.42;24.52
32761;BME280;19126;47.472;7.850;2023-12-07T00:08:10;96885.66;;;0.41;24.57
32761;BME280;19126;47.472;7.850;2023-12-07T00:10:37;96881.41;;;0.40;24.33
32761;BME280;19126;47.472;7.850;2023-12-07T00:13:04;96872.94;;;0.38;24.33
32761;BME280;19126;47.472;7.850;2023-12-07T00:15:32;96871.38;;;0.36;24.46
32761;BME280;19126;47.472;7.850;2023-12-07T00:18:00;96876.66;;;0.34;24.42
32761;BME280;19126;47.472;7.850;2023-12-07T00:20:29;96878.41;;;0.34;24.61
32761;BME280;19126;47.472;7.850;2023-12-07T00:22:57;96879.25;;;0.34;24.31
32761;BME280;19126;47.472;7.850;2023-12-07T00:25:24;96874.16;;;0.33;24.28
32761;BME280;19126;47.472;7.850;2023-12-07T00:27:52;96882.75;;;0.33;24.23
32761;BME280;19126;47.472;7.850;2023-12-07T00:30:19;96888.75;;;0.34;24.55
32761;BME280;19126;47.472;7.850;2023-12-07T00:32:46;96881.84;;;0.34;24.23
32761;BME280;19126;47.472;7.850;2023-12-07T00:35:14;96893.69;;;0.37;24.65
32761;BME280;19126;47.472;7.850;2023-12-07T00:37:42;96885.13;;;0.36;24.36
32761;BME280;19126;47.472;7.850;2023-12-07T00:40:11;96887.72;;;0.36;24.16
32761;BME280;19126;47.472;7.850;2023-12-07T00:42:40;96887.59;;;0.38;24.35
32761;BME280;19126;47.472;7.850;2023-12-07T00:45:08;96890.31;;;0.36;24.44
32761;BME280;19126;47.472;7.850;2023-12-07T00:47:35;96885.34;;;0.33;24.46
32761;BME280;19126;47.472;7.850;2023-12-07T00:50:03;96887.94;;;0.33;24.61
32761;BME280;19126;47.472;7.850;2023-12-07T00:52:30;96894.03;;;0.32;24.42
32761;BME280;19126;47.472;7.850;2023-12-07T00:54:58;96894.97;;;0.31;24.31
32761;BME280;19126;47.472;7.850;2023-12-07T00:57:26;96897.75;;;0.28;24.57
32761;BME280;19126;47.472;7.850;2023-12-07T00:59:54;96903.00;;;0.26;24.50
32761;BME280;19126;47.472;7.850;2023-12-07T01:02:21;96897.97;;;0.25;24.58
32761;BME280;19126;47.472;7.850;2023-12-07T01:04:48;96906.00;;;0.20;24.72
32761;BME280;19126;47.472;7.850;2023-12-07T01:07:15;96900.09;;;0.18;24.52
32761;BME280;19126;47.472;7.850;2023-12-07T01:09:42;96896.78;;;0.16;24.65
32761;BME280;19126;47.472;7.850;2023-12-07T01:12:10;96902.91;;;0.15;24.61
32761;BME280;19126;47.472;7.850;2023-12-07T01:14:38;96907.34;;;0.13;24.82
32761;BME280;19126;47.472;7.850;2023-12-07T01:17:06;96905.88;;;0.09;24.91
32761;BME280;19126;47.472;7.850;2023-12-07T01:19:33;96899.06;;;0.08;24.63
32761;BME280;19126;47.472;7.850;2023-12-07T01:22:00;96905.28;;;0.05;24.84
32761;BME280;19126;47.472;7.850;2023-12-07T01:24:27;96907.22;;;0.02;24.91
32761;BME280;19126;47.472;7.850;2023-12-07T01:26:55;96906.41;;;0.01;25.11
32761;BME280;19126;47.472;7.850;2023-12-07T01:29:22;96911.00;;;-0.04;24.74
32761;BME280;19126;47.472;7.850;2023-12-07T01:31:51;96904.41;;;-0.08;24.99
32761;BME280;19126;47.472;7.850;2023-12-07T01:34:18;96904.72;;;-0.13;25.17
32761;BME280;19126;47.472;7.850;2023-12-07T01:36:45;96902.41;;;-0.18;25.03
32761;BME280;19126;47.472;7.850;2023-12-07T01:39:13;96909.44;;;-0.20;25.30
32761;BME280;19126;47.472;7.850;2023-12-07T01:41:40;96903.53;;;-0.22;25.14
32761;BME280;19126;47.472;7.850;2023-12-07T01:44:07;96904.19;;;-0.18;25.26
32761;BME280;19126;47.472;7.850;2023-12-07T02:22:01;96929.06;;;-0.57;26.58
32761;BME280;19126;47.472;7.850;2023-12-07T02:32:18;96928.25;;;-0.72;26.56
32761;BME280;19126;47.472;7.850;2023-12-07T02:42:47;96930.31;;;-0.92;26.51
32761;BME280;19126;47.472;7.850;2023-12-07T02:46:30;96932.09;;;-0.93;26.99
32761;BME280;19126;47.472;7.850;2023-12-07T02:50:33;96934.66;;;-0.93;27.34
32761;BME280;19126;47.472;7.850;2023-12-07T02:54:23;96930.63;;;-0.97;27.26
32761;BME280;19126;47.472;7.850;2023-12-07T02:57:30;96918.34;;;-0.93;27.30
32761;BME280;19126;47.472;7.850;2023-12-07T03:00:31;96918.34;;;-0.93;27.83
32761;BME280;19126;47.472;7.850;2023-12-07T03:03:18;96919.28;;;-0.94;27.31
32761;BME280;19126;47.472;7.850;2023-12-07T03:06:02;96919.06;;;-0.91;27.79
32761;BME280;19126;47.472;7.850;2023-12-07T03:09:17;96914.84;;;-0.92;27.11
32761;BME280;19126;47.472;7.850;2023-12-07T03:12:25;96917.72;;;-0.97;28.14
32761;BME280;19126;47.472;7.850;2023-12-07T03:15:20;96919.53;;;-0.84;27.48
32761;BME280;19126;47.472;7.850;2023-12-07T03:18:17;96913.84;;;-0.90;27.63
32761;BME280;19126;47.472;7.850;2023-12-07T03:21:40;96917.44;;;-0.92;28.30
32761;BME280;19126;47.472;7.850;2023-12-07T03:24:50;96920.69;;;-1.03;27.71
32761;BME280;19126;47.472;7.850;2023-12-07T03:27:52;96921.50;;;-1.02;28.17
32761;BME280;19126;47.472;7.850;2023-12-07T03:30:59;96915.59;;;-1.05;28.09
32761;BME280;19126;47.472;7.850;2023-12-07T03:34:07;96913.94;;;-1.06;28.14
32761;BME280;19126;47.472;7.850;2023-12-07T03:37:18;96926.03;;;-1.06;28.26
32761;BME280;19126;47.472;7.850;2023-12-07T03:40:07;96922.34;;;-1.02;27.61
32761;BME280;19126;47.472;7.850;2023-12-07T03:43:03;96927.56;;;-1.04;28.08
32761;BME280;19126;47.472;7.850;2023-12-07T03:45:47;96924.19;;;-1.04;27.81
32761;BME280;19126;47.472;7.850;2023-12-07T03:48:34;96921.69;;;-1.06;27.56
32761;BME280;19126;47.472;7.850;2023-12-07T03:51:21;96925.72;;;-1.01;27.15
32761;BME280;19126;47.472;7.850;2023-12-07T03:53:53;96926.47;;;-0.99;27.29
32761;BME280;19126;47.472;7.850;2023-12-07T03:56:32;96930.81;;;-1.00;27.30
32761;BME280;19126;47.472;7.850;2023-12-07T03:59:02;96930.81;;;-1.00;27.00
32761;BME280;19126;47.472;7.850;2023-12-07T04:01:37;96926.75;;;-0.90;26.81
32761;BME280;19126;47.472;7.850;2023-12-07T04:04:11;96926.53;;;-0.86;27.04
32761;BME280;19126;47.472;7.850;2023-12-07T04:06:55;96923.31;;;-0.90;27.30
32761;BME280;19126;47.472;7.850;2023-12-07T04:09:35;96918.69;;;-0.85;27.12
32761;BME280;19126;47.472;7.850;2023-12-07T04:12:08;96922.84;;;-0.82;27.43
32761;BME280;19126;47.472;7.850;2023-12-07T04:14:37;96920.53;;;-0.87;26.82
32761;BME280;19126;47.472;7.850;2023-12-07T04:17:06;96920.09;;;-0.79;26.90
32761;BME280;19126;47.472;7.850;2023-12-07T04:19:33;96914.38;;;-0.84;27.74
32761;BME280;19126;47.472;7.850;2023-12-07T04:22:04;96924.41;;;-0.80;27.58
32761;BME280;19126;47.472;7.850;2023-12-07T04:24:31;96921.81;;;-0.80;27.41
32761;BME280;19126;47.472;7.850;2023-12-07T04:27:01;96921.09;;;-0.82;27.42
32761;BME280;19126;47.472;7.850;2023-12-07T04:29:29;96919.03;;;-0.77;27.85
32761;BME280;19126;47.472;7.850;2023-12-07T04:31:56;96920.69;;;-0.76;27.32
32761;BME280;19126;47.472;7.850;2023-12-07T04:34:23;96915.13;;;-0.82;27.33
32761;BME280;19126;47.472;7.850;2023-12-07T04:36:50;96915.19;;;-0.84;27.34
32761;BME280;19126;47.472;7.850;2023-12-07T04:39:19;96919.19;;;-0.93;27.68
32761;BME280;19126;47.472;7.850;2023-12-07T04:41:48;96905.75;;;-0.98;27.35
32761;BME280;19126;47.472;7.850;2023-12-07T04:44:15;96907.59;;;-1.00;27.82
32761;BME280;19126;47.472;7.850;2023-12-07T04:46:42;96906.75;;;-1.00;27.76
32761;BME280;19126;47.472;7.850;2023-12-07T04:49:10;96919.09;;;-1.06;27.23
32761;BME280;19126;47.472;7.850;2023-12-07T04:51:37;96919.09;;;-1.06;27.08
32761;BME280;19126;47.472;7.850;2023-12-07T04:54:04;96918.47;;;-1.09;26.86
32761;BME280;19126;47.472;7.850;2023-12-07T04:56:33;96918.66;;;-1.12;26.93
32761;BME280;19126;47.472;7.850;2023-12-07T04:59:00;96922.97;;;-1.13;27.01
32761;BME280;19126;47.472;7.850;2023-12-07T05:01:28;96921.25;;;-1.12;26.98
32761;BME280;19126;47.472;7.850;2023-12-07T05:03:55;96918.66;;;-1.12;27.15
32761;BME280;19126;47.472;7.850;2023-12-07T05:06:24;96924.75;;;-1.13;26.89
32761;BME280;19126;47.472;7.850;2023-12-07T05:08:52;96917.81;;;-1.13;25.80
32761;BME280;19126;47.472;7.850;2023-12-07T05:11:19;96918.56;;;-1.11;26.08
32761;BME280;19126;47.472;7.850;2023-12-07T05:13:48;96914.50;;;-1.00;26.14
32761;BME280;19126;47.472;7.850;2023-12-07T05:16:15;96909.44;;;-1.02;25.82
32761;BME280;19126;47.472;7.850;2023-12-07T05:18:43;96910.81;;;-1.11;26.20
32761;BME280;19126;47.472;7.850;2023-12-07T05:21:11;96906.78;;;-1.15;26.26
32761;BME280;19126;47.472;7.850;2023-12-07T05:23:38;96906.88;;;-1.16;26.06
32761;BME280;19126;47.472;7.850;2023-12-07T05:26:05;96901.91;;;-1.20;26.16
32761;BME280;19126;47.472;7.850;2023-12-07T05:28:35;96901.91;;;-1.20;25.66
32761;BME280;19126;47.472;7.850;2023-12-07T05:31:04;96904.13;;;-1.28;26.21
32761;BME280;19126;47.472;7.850;2023-12-07T05:33:32;96911.75;;;-1.26;26.14
32761;BME280;19126;47.472;7.850;2023-12-07T05:36:00;96907.63;;;-1.29;26.04
32761;BME280;19126;47.472;7.850;2023-12-07T05:38:29;96903.56;;;-1.33;26.15
32761;BME280;19126;47.472;7.850;2023-12-07T05:40:56;96902.56;;;-1.30;25.99
32761;BME280;19126;47.472;7.850;2023-12-07T05:43:23;96908.81;;;-1.35;26.24
32761;BME280;19126;47.472;7.850;2023-12-07T05:45:51;96906.25;;;-1.35;26.62
32761;BME280;19126;47.472;7.850;2023-12-07T05:48:20;96901.09;;;-1.35;26.23
32761;BME280;19126;47.472;7.850;2023-12-07T05:50:47;96902.56;;;-1.30;26.16
32761;BME280;19126;47.472;7.850;2023-12-07T05:53:15;96903.28;;;-1.28;26.03
32761;BME280;19126;47.472;7.850;2023-12-07T05:55:42;96907.69;;;-1.16;25.85
32761;BME280;19126;47.472;7.850;2023-12-07T05:58:09;96908.16;;;-1.09;25.64
32761;BME280;19126;47.472;7.850;2023-12-07T06:00:37;96917.19;;;-1.02;25.62
32761;BME280;19126;47.472;7.850;2023-12-07T06:03:05;96915.97;;;-0.96;25.66
32761;BME280;19126;47.472;7.850;2023-12-07T06:05:37;96925.09;;;-0.91;25.42
32761;BME280;19126;47.472;7.850;2023-12-07T06:08:05;96921.19;;;-0.83;25.45
32761;BME280;19126;47.472;7.850;2023-12-07T06:10:33;96928.00;;;-0.82;25.52
32761;BME280;19126;47.472;7.850;2023-12-07T06:13:01;96927.81;;;-0.79;25.21
32761;BME280;19126;47.472;7.850;2023-12-07T06:15:29;96925.31;;;-0.81;25.13
32761;BME280;19126;47.472;7.850;2023-12-07T06:17:59;96923.59;;;-0.80;25.28
32761;BME280;19126;47.472;7.850;2023-12-07T06:20:26;96914.94;;;-0.79;25.48
32761;BME280;19126;47.472;7.850;2023-12-07T06:22:55;96917.38;;;-0.78;25.50
32761;BME280;19126;47.472;7.850;2023-12-07T06:25:23;96922.31;;;-0.60;24.96
32761;BME280;19126;47.472;7.850;2023-12-07T06:27:51;96920.47;;;-0.58;25.32
32761;BME280;19126;47.472;7.850;2023-12-07T06:30:18;96927.59;;;-0.62;24.73
32761;BME280;19126;47.472;7.850;2023-12-07T06:32:46;96927.66;;;-0.63;25.07
32761;BME280;19126;47.472;7.850;2023-12-07T06:35:14;96920.03;;;-0.65;25.24
32761;BME280;19126;47.472;7.850;2023-12-07T06:37:41;96927.66;;;-0.63;25.17
32761;BME280;19126;47.472;7.850;2023-12-07T06:40:11;96932.84;;;-0.63;25.34
32761;BME280;19126;47.472;7.850;2023-12-07T06:42:39;96931.09;;;-0.63;24.99
32761;BME280;19126;47.472;7.850;2023-12-07T06:45:07;96934.28;;;-0.59;25.02
32761;BME280;19126;47.472;7.850;2023-12-07T06:47:37;96926.81;;;-0.49;24.60
32761;BME280;19126;47.472;7.850;2023-12-07T06:50:06;96930.19;;;-0.49;24.91
32761;BME280;19126;47.472;7.850;2023-12-07T06:52:34;96930.75;;;-0.43;24.81
32761;BME280;19126;47.472;7.850;2023-12-07T06:55:02;96930.94;;;-0.47;25.12
32761;BME280;19126;47.472;7.850;2023-12-07T06:57:30;96926.63;;;-0.46;25.17
32761;BME280;19126;47.472;7.850;2023-12-07T06:59:58;96918.56;;;-0.41;25.20
32761;BME280;19126;47.472;7.850;2023-12-07T07:02:25;96918.38;;;-0.38;25.14
32761;BME280;19126;47.472;7.850;2023-12-07T07:04:52;96929.63;;;-0.39;24.83
32761;BME280;19126;47.472;7.850;2023-12-07T07:07:20;96927.88;;;-0.39;25.24
32761;BME280;19126;47.472;7.850;2023-12-07T07:09:47;96920.94;;;-0.38;25.12
32761;BME280;19126;47.472;7.850;2023-12-07T07:12:19;96912.19;;;-0.36;25.24
32761;BME280;19126;47.472;7.850;2023-12-07T07:14:48;96913.97;;;-0.23;25.38
32761;BME280;19126;47.472;7.850;2023-12-07T07:17:16;96906.31;;;-0.25;25.27
32761;BME280;19126;47.472;7.850;2023-12-07T07:19:43;96913.97;;;-0.23;25.66
32761;BME280;19126;47.472;7.850;2023-12-07T07:22:11;96905.41;;;-0.24;25.60
32761;BME280;19126;47.472;7.850;2023-12-07T07:24:38;96913.59;;;-0.17;25.84
32761;BME280;19126;47.472;7.850;2023-12-07T07:27:05;96919.38;;;-0.13;25.58
32761;BME280;19126;47.472;7.850;2023-12-07T07:29:32;96916.78;;;-0.13;25.96
32761;BME280;19126;47.472;7.850;2023-12-07T07:32:01;96921.53;;;-0.20;26.48
32761;BME280;19126;47.472;7.850;2023-12-07T07:34:28;96918.31;;;-0.24;26.42
32761;BME280;19126;47.472;7.850;2023-12-07T07:36:55;96921.13;;;-0.14;26.55
32761;BME280;19126;47.472;7.850;2023-12-07T07:39:23;96922.16;;;-0.17;26.83
32761;BME280;19126;47.472;7.850;2023-12-07T07:41:50;96915.53;;;-0.21;26.60
32761;BME280;19126;47.472;7.850;2023-12-07T07:44:17;96916.25;;;-0.19;26.70
32761;BME280;19126;47.472;7.850;2023-12-07T07:46:45;96918.56;;;-0.14;26.93
32761;BME280;19126;47.472;7.850;2023-12-07T07:49:13;96926.22;;;0.01;26.98
32761;BME280;19126;47.472;7.850;2023-12-07T07:51:40;96922.22;;;0.09;27.32
32761;BME280;19126;47.472;7.850;2023-12-07T07:54:08;96919.41;;;-0.01;27.81
32761;BME280;19126;47.472;7.850;2023-12-07T07:56:35;96925.50;;;-0.02;27.78
32761;BME280;19126;47.472;7.850;2023-12-07T07:59:02;96931.38;;;0.01;28.29
32761;BME280;19126;47.472;7.850;2023-12-07T08:01:30;96921.78;;;0.03;28.56
32761;BME280;19126;47.472;7.850;2023-12-07T08:03:57;96905.06;;;0.08;28.84
32761;BME280;19126;47.472;7.850;2023-12-07T08:06:26;96904.22;;;0.08;29.09
32761;BME280;19126;47.472;7.850;2023-12-07T08:08:53;96900.63;;;0.10;29.54
32761;BME280;19126;47.472;7.850;2023-12-07T08:11:20;96891.63;;;0.16;30.13
32761;BME280;19126;47.472;7.850;2023-12-07T08:13:47;96888.13;;;0.17;30.67
32761;BME280;19126;47.472;7.850;2023-12-07T08:16:16;96892.78;;;0.25;30.84
32761;BME280;19126;47.472;7.850;2023-12-07T08:18:43;96896.09;;;0.27;31.68
32761;BME280;19126;47.472;7.850;2023-12-07T08:21:19;96889.16;;;0.40;32.41
32761;BME280;19126;47.472;7.850;2023-12-07T08:23:48;96895.25;;;0.39;32.94
32761;BME280;19126;47.472;7.850;2023-12-07T08:26:15;96885.94;;;0.37;33.75
32761;BME280;19126;47.472;7.850;2023-12-07T08:28:43;96876.44;;;0.37;34.19
32761;BME280;19126;47.472;7.850;2023-12-07T08:31:10;96880.69;;;0.38;35.10
32761;BME280;19126;47.472;7.850;2023-12-07T08:33:38;96884.59;;;0.44;35.27
32761;BME280;19126;47.472;7.850;2023-12-07T08:36:07;96885.84;;;0.51;36.10
32761;BME280;19126;47.472;7.850;2023-12-07T08:38:34;96879.75;;;0.52;37.41
32761;BME280;19126;47.472;7.850;2023-12-07T08:41:03;96875.28;;;0.54;38.73
32761;BME280;19126;47.472;7.850;2023-12-07T08:43:30;96879.44;;;0.57;40.11
32761;BME280;19126;47.472;7.850;2023-12-07T08:45:58;96876.53;;;0.62;41.96
32761;BME280;19126;47.472;7.850;2023-12-07T08:48:25;96876.31;;;0.65;43.57
32761;BME280;19126;47.472;7.850;2023-12-07T08:50:52;96883.13;;;0.79;48.66
32761;BME280;19126;47.472;7.850;2023-12-07T08:53:19;96881.47;;;0.78;53.61
32761;BME280;19126;47.472;7.850;2023-12-07T08:55:47;96880.13;;;0.85;56.46
32761;BME280;19126;47.472;7.850;2023-12-07T08:58:15;96871.94;;;0.91;62.29
32761;BME280;19126;47.472;7.850;2023-12-07T09:00:42;96869.50;;;1.01;67.78
32761;BME280;19126;47.472;7.850;2023-12-07T09:03:10;96871.59;;;0.96;73.83
32761;BME280;19126;47.472;7.850;2023-12-07T09:05:37;96875.00;;;0.96;79.00
32761;BME280;19126;47.472;7.850;2023-12-07T09:08:05;96876.25;;;1.04;84.30
32761;BME280;19126;47.472;7.850;2023-12-07T09:10:32;96877.75;;;1.06;88.80
32761;BME280;19126;47.472;7.850;2023-12-07T09:12:59;96893.94;;;0.97;92.51
32761;BME280;19126;47.472;7.850;2023-12-07T09:15:28;96897.66;;;0.93;95.51
32761;BME280;19126;47.472;7.850;2023-12-07T09:17:55;96893.34;;;0.93;97.05
32761;BME280;19126;47.472;7.850;2023-12-07T09:20:23;96896.22;;;1.01;98.61
32761;BME280;19126;47.472;7.850;2023-12-07T09:22:50;96895.72;;;0.96;100.00
32761;BME280;19126;47.472;7.850;2023-12-07T09:25:17;96884.94;;;1.02;100.00
32761;BME280;19126;47.472;7.850;2023-12-07T09:27:46;96885.16;;;0.99;100.00
32761;BME280;19126;47.472;7.850;2023-12-07T09:30:14;96882.63;;;1.11;100.00
32761;BME280;19126;47.472;7.850;2023-12-07T09:32:43;96872.00;;;1.02;100.00
32761;BME280;19126;47.472;7.850;2023-12-07T09:35:11;96862.25;;;1.06;100.00
32761;BME280;19126;47.472;7.850;2023-12-07T09:37:41;96860.38;;;1.08;100.00
32761;BME280;19126;47.472;7.850;2023-12-07T09:40:14;96846.13;;;1.02;100.00
32761;BME280;19126;47.472;7.850;2023-12-07T09:42:42;96859.06;;;1.02;100.00
32761;BME280;19126;47.472;7.850;2023-12-07T09:45:10;96861.38;;;0.94;100.00
32761;BME280;19126;47.472;7.850;2023-12-07T09:47:38;96862.38;;;0.92;100.00
32761;BME280;19126;47.472;7.850;2023-12-07T09:50:09;96851.75;;;0.96;100.00
32761;BME280;19126;47.472;7.850;2023-12-07T09:52:38;96850.69;;;0.99;100.00
32761;BME280;19126;47.472;7.850;2023-12-07T09:55:07;96851.81;;;1.08;100.00
32761;BME280;19126;47.472;7.850;2023-12-07T09:57:37;96851.41;;;1.01;100.00
32761;BME280;19126;47.472;7.850;2023-12-07T10:00:06;96845.00;;;0.94;100.00
32761;BME280;19126;47.472;7.850;2023-12-07T10:02:37;96845.72;;;0.96;100.00
32761;BME280;19126;47.472;7.850;2023-12-07T10:05:08;96850.81;;;0.97;100.00
32761;BME280;19126;47.472;7.850;2023-12-07T10:07:39;96846.34;;;0.99;100.00
32761;BME280;19126;47.472;7.850;2023-12-07T10:10:08;96841.03;;;1.01;100.00
32761;BME280;19126;47.472;7.850;2023-12-07T10:12:46;96841.53;;;1.06;100.00
32761;BME280;19126;47.472;7.850;2023-12-07T10:15:15;96834.84;;;1.04;100.00
32761;BME280;19126;47.472;7.850;2023-12-07T10:17:50;96836.72;;;1.01;100.00
32761;BME280;19126;47.472;7.850;2023-12-07T10:20:22;96845.41;;;1.00;100.00
32761;BME280;19126;47.472;7.850;2023-12-07T10:22:59;96845.28;;;1.02;100.00
32761;BME280;19126;47.472;7.850;2023-12-07T10:25:29;96864.84;;;1.06;100.00
32761;BME280;19126;47.472;7.850;2023-12-07T10:27:56;96860.72;;;1.04;100.00
32761;BME280;19126;47.472;7.850;2023-12-07T10:30:23;96846.94;;;1.03;100.00
32761;BME280;19126;47.472;7.850;2023-12-07T10:32:52;96850.81;;;0.97;100.00
32761;BME280;19126;47.472;7.850;2023-12-07T10:35:21;96860.94;;;1.00;100.00
32761;BME280;19126;47.472;7.850;2023-12-07T10:37:48;96857.72;;;0.97;100.00
32761;BME280;19126;47.472;7.850;2023-12-07T10:40:17;96874.38;;;0.93;100.00
32761;BME280;19126;47.472;7.850;2023-12-07T10:42:48;96861.38;;;0.94;100.00
32761;BME280;19126;47.472;7.850;2023-12-07T10:45:16;96862.38;;;0.92;100.00
32761;BME280;19126;47.472;7.850;2023-12-07T10:47:44;96857.00;;;0.95;100.00
32761;BME280;19126;47.472;7.850;2023-12-07T10:50:14;96853.69;;;0.93;100.00
32761;BME280;19126;47.472;7.850;2023-12-07T10:52:51;96841.97;;;1.00;100.00
32761;BME280;19126;47.472;7.850;2023-12-07T10:55:21;96827.63;;;0.96;100.00
32761;BME280;19126;47.472;7.850;2023-12-07T10:57:52;96824.72;;;1.00;100.00
32761;BME280;19126;47.472;7.850;2023-12-07T11:00:21;96810.00;;;1.01;100.00
32761;BME280;19126;47.472;7.850;2023-12-07T11:02:51;96809.41;;;0.97;100.00
32761;BME280;19126;47.472;7.850;2023-12-07T11:05:19;96796.56;;;0.96;100.00
32761;BME280;19126;47.472;7.850;2023-12-07T11:07:56;96799.59;;;0.90;100.00
32761;BME280;19126;47.472;7.850;2023-12-07T11:10:30;96785.50;;;0.94;100.00
32761;BME280;19126;47.472;7.850;2023-12-07T11:13:08;96787.72;;;0.87;100.00
32761;BME280;19126;47.472;7.850;2023-12-07T11:15:38;96776.22;;;0.91;100.00
32761;BME280;19126;47.472;7.850;2023-12-07T11:18:06;96777.38;;;0.87;100.00
32761;BME280;19126;47.472;7.850;2023-12-07T11:20:40;96765.97;;;0.90;100.00
32761;BME280;19126;47.472;7.850;2023-12-07T11:23:10;96754.91;;;0.87;100.00
32761;BME280;19126;47.472;7.850;2023-12-07T11:25:38;96762.59;;;0.89;100.00
32761;BME280;19126;47.472;7.850;2023-12-07T11:28:06;96757.84;;;0.83;100.00
32761;BME280;19126;47.472;7.850;2023-12-07T11:30:36;96755.91;;;0.73;100.00
32761;BME280;19126;47.472;7.850;2023-12-07T11:33:04;96758.59;;;0.72;100.00
32761;BME280;19126;47.472;7.850;2023-12-07T11:35:32;96755.50;;;0.67;100.00
32761;BME280;19126;47.472;7.850;2023-12-07T11:38:04;96760.81;;;0.65;100.00
32761;BME280;19126;47.472;7.850;2023-12-07T11:40:41;96751.91;;;0.69;100.00
32761;BME280;19126;47.472;7.850;2023-12-07T11:43:16;96735.53;;;0.69;100.00
32761;BME280;19126;47.472;7.850;2023-12-07T11:45:48;96742.28;;;0.71;100.00
32761;BME280;19126;47.472;7.850;2023-12-07T11:48:16;96732.53;;;0.75;100.00
32761;BME280;19126;47.472;7.850;2023-12-07T11:50:57;96738.56;;;0.63;100.00
32761;BME280;19126;47.472;7.850;2023-12-07T11:53:26;96729.78;;;0.65;100.00
32761;BME280;19126;47.472;7.850;2023-12-07T11:55:56;96726.25;;;0.66;100.00
32761;BME280;19126;47.472;7.850;2023-12-07T11:58:24;96724.06;;;0.73;100.00
32761;BME280;19126;47.472;7.850;2023-12-07T12:00:52;96723.03;;;0.76;100.00
32761;BME280;19126;47.472;7.850;2023-12-07T12:03:20;96710.91;;;0.76;100.00
32761;BME280;19126;47.472;7.850;2023-12-07T12:05:48;96722.91;;;0.77;100.00
32761;BME280;19126;47.472;7.850;2023-12-07T12:08:16;96728.91;;;0.78;100.00
32761;BME280;19126;47.472;7.850;2023-12-07T12:10:45;96734.75;;;0.68;100.00
32761;BME280;19126;47.472;7.850;2023-12-07T12:13:15;96731.16;;;0.82;100.00
32761;BME280;19126;47.472;7.850;2023-12-07T12:15:42;96726.41;;;0.76;100.00
32761;BME280;19126;47.472;7.850;2023-12-07T12:18:10;96732.31;;;0.78;100.00
32761;BME280;19126;47.472;7.850;2023-12-07T12:20:39;96720.66;;;0.72;100.00
32761;BME280;19126;47.472;7.850;2023-12-07T12:23:06;96718.84;;;0.86;100.00
32761;BME280;19126;47.472;7.850;2023-12-07T12:25:33;96721.47;;;0.97;100.00
32761;BME280;19126;47.472;7.850;2023-12-07T12:28:03;96716.38;;;0.96;100.00
32761;BME280;19126;47.472;7.850;2023-12-07T12:30:33;96705.94;;;0.97;100.00
32761;BME280;19126;47.472;7.850;2023-12-07T12:33:00;96705.72;;;1.00;100.00
32761;BME280;19126;47.472;7.850;2023-12-07T12:35:28;96709.25;;;0.99;100.00
32761;BME280;19126;47.472;7.850;2023-12-07T12:37:56;96713.47;;;1.00;100.00
32761;BME280;19126;47.472;7.850;2023-12-07T12:40:26;96719.50;;;1.12;100.00
32761;BME280;19126;47.472;7.850;2023-12-07T12:42:55;96705.09;;;1.21;100.00
32761;BME280;19126;47.472;7.850;2023-12-07T12:45:22;96704.16;;;1.34;100.00
32761;BME280;19126;47.472;7.850;2023-12-07T12:47:51;96691.00;;;1.37;100.00
32761;BME280;19126;47.472;7.850;2023-12-07T12:50:36;96689.50;;;1.45;100.00
32761;BME280;19126;47.472;7.850;2023-12-07T12:53:05;96695.63;;;1.44;100.00
32761;BME280;19126;47.472;7.850;2023-12-07T12:55:35;96708.78;;;1.41;100.00
32761;BME280;19126;47.472;7.850;2023-12-07T12:58:03;96701.72;;;1.43;100.00
32761;BME280;19126;47.472;7.850;2023-12-07T13:00:31;96687.25;;;1.52;100.00
32761;BME280;19126;47.472;7.850;2023-12-07T13:03:04;96666.31;;;1.44;100.00
32761;BME280;19126;47.472;7.850;2023-12-07T13:05:32;96664.19;;;1.38;100.00
32761;BME280;19126;47.472;7.850;2023-12-07T13:08:00;96646.28;;;1.35;100.00
32761;BME280;19126;47.472;7.850;2023-12-07T13:10:28;96653.09;;;1.24;100.00
32761;BME280;19126;47.472;7.850;2023-12-07T13:12:55;96650.38;;;1.26;100.00
32761;BME280;19126;47.472;7.850;2023-12-07T13:15:22;96644.16;;;1.28;100.00
32761;BME280;19126;47.472;7.850;2023-12-07T13:17:51;96627.94;;;1.26;100.00
32761;BME280;19126;47.472;7.850;2023-12-07T13:20:20;96625.22;;;1.28;100.00
32761;BME280;19126;47.472;7.850;2023-12-07T13:22:47;96623.13;;;1.33;100.00
32761;BME280;19126;47.472;7.850;2023-12-07T13:25:14;96637.97;;;1.42;100.00
32761;BME280;19126;47.472;7.850;2023-12-07T13:27:41;96637.72;;;1.45;100.00
32761;BME280;19126;47.472;7.850;2023-12-07T13:30:10;96635.00;;;1.47;100.00
32761;BME280;19126;47.472;7.850;2023-12-07T13:32:38;96640.56;;;1.42;100.00
32761;BME280;19126;47.472;7.850;2023-12-07T13:35:06;96641.13;;;1.46;100.00
32761;BME280;19126;47.472;7.850;2023-12-07T13:37:35;96630.66;;;1.48;100.00
32761;BME280;19126;47.472;7.850;2023-12-07T13:40:04;96645.34;;;1.47;100.00
32761;BME280;19126;47.472;7.850;2023-12-07T13:42:36;96636.66;;;1.37;100.00
32761;BME280;19126;47.472;7.850;2023-12-07T13:45:05;96642.66;;;1.37;100.00
32761;BME280;19126;47.472;7.850;2023-12-07T13:47:34;96631.94;;;1.30;100.00
32761;BME280;19126;47.472;7.850;2023-12-07T13:50:06;96638.53;;;1.35;100.00
32761;BME280;19126;47.472;7.850;2023-12-07T13:52:35;96627.94;;;1.26;100.00
32761;BME280;19126;47.472;7.850;2023-12-07T13:55:02;96620.16;;;1.26;100.00
32761;BME280;19126;47.472;7.850;2023-12-07T13:57:30;96614.38;;;1.23;100.00
32761;BME280;19126;47.472;7.850;2023-12-07T13:59:57;96601.69;;;1.20;100.00
32761;BME280;19126;47.472;7.850;2023-12-07T14:02:25;96597.91;;;1.24;100.00
32761;BME280;19126;47.472;7.850;2023-12-07T14:04:54;96599.47;;;1.15;100.00
32761;BME280;19126;47.472;7.850;2023-12-07T14:07:22;96614.84;;;1.16;100.00
32761;BME280;19126;47.472;7.850;2023-12-07T14:09:52;96596.13;;;1.01;100.00
32761;BME280;19126;47.472;7.850;2023-12-07T14:12:20;96595.44;;;0.99;100.00
32761;BME280;19126;47.472;7.850;2023-12-07T14:14:47;96584.50;;;1.07;100.00